Time;durP1;ratioP1;P1;durP2;ratioP2;P2;SDS_P1;SDS_P2;PMS_P1;PMS_P2;Temp;Humidity;BMP_temperature;BMP_pressure;BME280_temperature;BME280_humidity;BME280_pressure;Samples;Min_cycle;Max_cycle;Signal;HPM_P1;HPM_P2
2022/03/16 00:02:23;;;;;;;19.43;16.17;;;9.80;99.90;;;10.62;54.85;102037.41;4859359;28;103280;-83
2022/03/16 00:04:55;;;;;;;16.50;13.47;;;9.70;99.90;;;10.68;54.40;102030.28;4875034;28;99603;-82
2022/03/16 00:07:22;;;;;;;15.27;13.57;;;9.80;99.90;;;10.70;55.58;102035.53;4882312;28;97945;-84
2022/03/16 00:09:48;;;;;;;16.00;12.80;;;9.70;99.90;;;10.78;55.04;102038.94;4851149;28;99030;-83
2022/03/16 00:12:15;;;;;;;16.43;14.20;;;9.80;99.90;;;10.81;54.95;102032.72;4841522;28;98981;-82
2022/03/16 00:14:41;;;;;;;16.83;14.73;;;9.90;99.90;;;10.49;53.21;102046.38;4836048;28;98347;-83
2022/03/16 00:17:08;;;;;;;17.07;15.17;;;9.80;99.90;;;10.43;55.14;102042.94;4838472;28;99397;-83
2022/03/16 00:19:34;;;;;;;17.13;14.30;;;9.60;99.90;;;10.48;55.85;102045.50;4851303;28;98921;-83
2022/03/16 00:22:03;;;;;;;18.80;14.73;;;9.60;99.90;;;10.59;56.09;102038.34;4859057;28;116431;-83
2022/03/16 00:24:30;;;;;;;16.23;14.53;;;9.60;99.90;;;10.62;54.15;102026.84;4837539;28;98464;-82
2022/03/16 00:26:56;;;;;;;16.63;14.23;;;9.80;99.90;;;10.54;55.04;102034.00;4847440;28;101210;-84
2022/03/16 00:29:22;;;;;;;17.97;14.17;;;9.60;99.90;;;10.35;54.45;102039.53;4830313;28;103469;-82
2022/03/16 00:31:48;;;;;;;17.07;14.80;;;9.50;99.90;;;10.37;56.17;102040.38;4834008;28;101088;-83
2022/03/16 00:34:14;;;;;;;17.07;14.70;;;9.40;99.90;;;10.43;54.92;102037.66;4845518;28;109141;-85
2022/03/16 00:36:40;;;;;;;15.87;13.87;;;9.50;99.90;;;10.41;55.12;102039.47;4865834;28;99702;-85
2022/03/16 00:39:09;;;;;;;16.57;14.87;;;9.50;99.90;;;10.27;54.59;102033.50;4875388;28;99010;-85
2022/03/16 00:41:37;;;;;;;17.13;13.73;;;9.40;99.90;;;10.34;55.87;102031.63;4857716;28;129947;-84
2022/03/16 00:44:07;;;;;;;15.20;13.53;;;9.40;99.90;;;10.39;55.30;102035.94;4847404;28;104515;-84
2022/03/16 00:46:33;;;;;;;15.57;13.60;;;9.40;99.90;;;10.48;55.55;102039.38;4854247;28;102697;-85
2022/03/16 00:48:59;;;;;;;17.33;14.53;;;9.50;99.90;;;10.49;55.54;102044.63;4892283;28;97571;-85
2022/03/16 00:51:25;;;;;;;16.07;14.20;;;9.50;99.90;;;10.67;55.79;102047.00;4857186;28;127082;-84
2022/03/16 00:53:52;;;;;;;14.97;13.37;;;9.60;99.90;;;10.86;55.37;102039.72;4878804;28;98438;-84
2022/03/16 00:56:18;;;;;;;15.40;13.50;;;9.80;99.90;;;11.01;54.18;102042.13;4899420;28;96872;-83
2022/03/16 00:58:44;;;;;;;17.47;13.73;;;10.00;99.90;;;11.21;54.44;102036.50;4859642;28;125182;-84
2022/03/16 01:01:10;;;;;;;15.37;13.17;;;10.20;99.90;;;11.23;54.06;102036.47;4853183;28;129334;-81
2022/03/16 01:03:42;;;;;;;11.97;10.73;;;10.20;99.90;;;11.36;54.00;102031.88;4893016;28;98421;-83
2022/03/16 01:06:20;;;;;;;14.27;11.97;;;10.30;99.90;;;11.46;53.56;102031.69;4859049;28;97535;-82
2022/03/16 01:08:46;;;;;;;14.33;12.73;;;10.40;99.90;;;11.45;52.95;102037.88;4848864;28;98362;-82
2022/03/16 01:11:12;;;;;;;15.07;12.80;;;10.40;99.90;;;11.44;52.91;102044.06;4859463;28;100307;-85
2022/03/16 01:13:39;;;;;;;15.73;12.80;;;10.40;99.90;;;11.41;52.94;102040.56;4856774;28;97316;-85
2022/03/16 01:16:08;;;;;;;13.50;12.07;;;10.30;99.90;;;11.44;51.85;102035.25;4864698;28;97299;-85
2022/03/16 01:18:34;;;;;;;16.97;12.23;;;10.30;99.90;;;11.51;52.72;102026.31;4887370;28;111567;-85
2022/03/16 01:21:00;;;;;;;14.93;11.23;;;10.40;99.90;;;11.62;53.02;102019.94;4859627;28;111325;-85
2022/03/16 01:23:26;;;;;;;13.23;11.73;;;10.50;99.90;;;11.62;52.03;102022.56;4879519;28;103715;-84
2022/03/16 01:25:51;;;;;;;13.77;11.80;;;10.60;99.90;;;11.59;51.92;102025.28;4862867;28;98933;-83
2022/03/16 01:28:17;;;;;;;12.77;11.13;;;10.50;99.90;;;11.52;52.16;102023.63;4867628;28;123260;-84
2022/03/16 01:30:43;;;;;;;12.77;11.07;;;10.50;99.90;;;11.54;53.01;102024.47;4872035;28;98905;-85
2022/03/16 01:33:09;;;;;;;12.00;10.67;;;10.50;99.90;;;11.47;52.08;102021.97;4864902;28;100755;-85
2022/03/16 01:35:35;;;;;;;13.70;12.20;;;10.40;99.90;;;11.37;51.68;102029.19;4879965;28;97399;-82
2022/03/16 01:38:01;;;;;;;13.30;11.97;;;10.40;99.90;;;11.29;52.77;102026.69;4881166;28;97489;-85
2022/03/16 01:40:27;;;;;;;12.63;10.73;;;10.30;99.90;;;11.27;53.38;102027.59;4891420;28;126237;-82
2022/03/16 01:42:53;;;;;;;11.43;9.70;;;10.20;99.90;;;11.30;53.56;102011.72;4871812;28;98812;-84
2022/03/16 01:45:19;;;;;;;11.80;10.30;;;10.30;99.90;;;11.34;53.04;102008.13;4875252;28;97058;-84
2022/03/16 01:47:45;;;;;;;13.07;11.73;;;10.40;99.90;;;11.25;52.29;102006.50;4854604;28;124410;-85
2022/03/16 01:50:11;;;;;;;11.67;10.30;;;10.30;99.90;;;11.26;53.79;102015.28;4858264;28;98615;-85
2022/03/16 01:52:38;;;;;;;11.80;10.07;;;10.20;99.90;;;11.43;52.88;102012.34;4867572;28;123612;-84
2022/03/16 01:55:05;;;;;;;9.93;8.60;;;10.40;99.90;;;11.53;52.84;102003.38;4890222;28;97086;-81
2022/03/16 01:57:37;;;;;;;7.77;6.97;;;10.50;99.90;;;11.65;53.09;102002.28;4859110;28;103359;-83
2022/03/16 02:00:08;;;;;;;8.60;7.80;;;10.70;99.90;;;11.74;52.52;102007.41;4861883;28;100295;-82
2022/03/16 02:02:40;;;;;;;7.20;6.00;;;10.80;99.90;;;11.82;52.44;102006.38;4875898;28;101021;-84
2022/03/16 02:05:06;;;;;;;8.00;7.20;;;10.90;99.90;;;12.03;51.95;102002.44;4895081;28;97197;-84
2022/03/16 02:07:32;;;;;;;9.37;8.47;;;11.10;99.90;;;12.17;51.19;102000.38;4875098;28;97401;-84
2022/03/16 02:10:00;;;;;;;8.80;7.90;;;11.30;99.90;;;12.30;51.34;102003.63;4870284;28;100728;-83
2022/03/16 02:12:26;;;;;;;10.43;9.00;;;11.40;99.90;;;12.42;50.44;102002.47;4875659;28;98779;-82
2022/03/16 02:14:53;;;;;;;9.63;8.70;;;11.40;99.90;;;12.41;49.27;102003.38;4849471;28;97092;-82
2022/03/16 02:17:19;;;;;;;11.00;9.63;;;11.40;99.90;;;12.37;49.97;102004.38;4870991;28;97488;-82
2022/03/16 02:19:45;;;;;;;11.33;10.23;;;11.30;99.90;;;12.26;49.52;102004.59;4888471;28;98871;-82
2022/03/16 02:22:14;;;;;;;12.63;10.03;;;11.20;99.90;;;12.07;50.49;102006.75;4855105;28;126880;-82
2022/03/16 02:24:40;;;;;;;10.67;9.60;;;11.00;99.90;;;11.90;50.94;101998.28;4858192;28;97049;-82
2022/03/16 02:27:06;;;;;;;9.23;8.33;;;10.80;99.90;;;11.84;51.58;101987.81;4877591;28;97326;-82
2022/03/16 02:29:33;;;;;;;10.63;9.43;;;10.70;99.90;;;11.77;51.55;101983.53;4878697;28;100538;-82
2022/03/16 02:31:58;;;;;;;10.73;9.63;;;10.70;99.90;;;11.72;52.54;101996.00;4910877;28;97206;-86
2022/03/16 02:34:25;;;;;;;10.20;9.13;;;10.60;99.90;;;11.78;51.68;101993.22;4903929;28;97250;-82
2022/03/16 02:36:51;;;;;;;12.60;10.87;;;10.70;99.90;;;11.91;51.70;101992.09;4894520;28;96876;-82
2022/03/16 02:39:16;;;;;;;12.13;10.93;;;10.80;99.90;;;12.00;51.57;101994.53;4874535;28;99669;-85
2022/03/16 02:41:47;;;;;;;12.43;10.17;;;10.90;99.90;;;12.12;51.02;101993.41;4863210;28;98618;-85
2022/03/16 02:44:13;;;;;;;11.87;10.60;;;11.10;99.90;;;12.15;51.49;101988.97;4860644;28;97125;-85
2022/03/16 02:46:39;;;;;;;11.03;9.93;;;11.10;99.90;;;12.33;50.86;101992.13;4880853;28;101731;-85
2022/03/16 02:49:07;;;;;;;13.00;10.90;;;11.30;99.90;;;12.20;50.34;102005.59;4903127;28;127418;-83
2022/03/16 02:51:33;;;;;;;13.30;11.37;;;11.10;99.90;;;12.02;50.15;101994.53;4859295;28;105640;-82
2022/03/16 02:53:59;;;;;;;13.43;11.20;;;10.90;99.90;;;11.86;50.40;101986.00;4871983;28;124657;-83
2022/03/16 02:56:27;;;;;;;12.73;11.30;;;10.80;99.90;;;11.75;51.19;101993.28;4877605;28;97652;-85
2022/03/16 02:58:54;;;;;;;12.70;11.40;;;10.60;99.90;;;11.54;50.66;102000.69;4875037;28;99128;-82
2022/03/16 03:01:20;;;;;;;12.27;11.07;;;10.50;99.90;;;11.32;51.53;101999.34;4864583;28;98524;-84
2022/03/16 03:03:46;;;;;;;13.33;11.93;;;10.30;99.90;;;11.06;51.78;102007.72;4894288;28;98664;-84
2022/03/16 03:06:12;;;;;;;13.27;11.80;;;10.10;99.90;;;10.87;52.25;101999.22;4888197;28;97675;-85
2022/03/16 03:08:38;;;;;;;12.83;11.43;;;9.90;99.90;;;10.70;53.10;101995.94;4871539;28;98823;-82
2022/03/16 03:11:06;;;;;;;13.70;12.27;;;9.70;99.90;;;10.53;52.73;102000.59;4864613;28;126306;-85
2022/03/16 03:13:32;;;;;;;14.97;13.00;;;9.60;99.90;;;10.35;53.36;102001.72;4859697;28;98345;-84
2022/03/16 03:15:58;;;;;;;14.77;13.03;;;9.40;99.90;;;10.25;53.54;101998.31;4864079;28;97290;-86
2022/03/16 03:18:23;;;;;;;13.13;11.13;;;9.30;99.90;;;10.39;55.01;101998.13;4908796;28;101949;-85
2022/03/16 03:20:49;;;;;;;13.27;11.87;;;9.40;99.90;;;10.12;52.92;101988.78;4908561;28;97821;-82
2022/03/16 03:23:15;;;;;;;13.40;12.00;;;9.20;99.90;;;10.16;54.74;101990.53;4873684;28;97049;-84
2022/03/16 03:25:41;;;;;;;14.23;11.87;;;9.20;99.90;;;10.17;53.59;101981.72;4876721;28;97782;-83
2022/03/16 03:28:07;;;;;;;14.43;11.70;;;9.20;99.90;;;10.10;54.43;101980.91;4856884;28;127207;-83
2022/03/16 03:30:33;;;;;;;12.80;11.47;;;9.10;99.90;;;10.02;53.46;101981.91;4875042;28;126713;-83
2022/03/16 03:32:59;;;;;;;12.37;11.17;;;9.10;99.90;;;9.78;52.77;101983.94;4873690;28;97656;-84
2022/03/16 03:35:25;;;;;;;14.67;11.57;;;8.90;99.90;;;9.60;53.77;101994.69;4878136;28;97133;-83
2022/03/16 03:37:52;;;;;;;12.53;11.23;;;8.80;99.90;;;9.47;54.96;101999.19;4859325;28;99141;-83
2022/03/16 03:40:18;;;;;;;12.93;10.30;;;8.70;99.90;;;9.37;55.73;101997.53;4871540;28;97285;-83
2022/03/16 03:42:44;;;;;;;11.33;10.13;;;8.60;99.90;;;9.46;56.09;102012.38;4878931;28;97083;-83
2022/03/16 03:45:09;;;;;;;14.00;11.00;;;8.60;99.90;;;9.46;54.72;102009.75;4875715;28;98944;-83
2022/03/16 03:47:36;;;;;;;11.40;10.27;;;8.60;99.90;;;9.42;54.12;102015.94;4869895;28;97980;-83
2022/03/16 03:50:02;;;;;;;11.57;10.20;;;8.50;99.90;;;9.33;55.22;102021.28;4859012;28;118011;-83
2022/03/16 03:52:28;;;;;;;12.50;11.10;;;8.50;99.90;;;9.34;55.37;102025.66;4899983;28;99423;-82
2022/03/16 03:54:54;;;;;;;11.07;9.97;;;8.50;99.90;;;9.33;55.77;102021.28;4884470;28;97539;-83
2022/03/16 03:57:20;;;;;;;11.40;10.20;;;8.50;99.90;;;9.39;54.75;102027.34;4879477;28;98033;-82
2022/03/16 03:59:46;;;;;;;11.87;10.20;;;8.50;99.90;;;9.15;54.00;102022.31;4882567;28;97554;-82
2022/03/16 04:02:12;;;;;;;11.43;9.93;;;8.40;99.90;;;9.22;57.04;102019.59;4852263;28;98937;-83
2022/03/16 04:04:37;;;;;;;12.10;10.80;;;8.40;99.90;;;9.11;55.23;102018.84;4874587;28;100918;-82
2022/03/16 04:07:04;;;;;;;10.77;9.67;;;8.40;99.90;;;9.01;54.92;102025.06;4875348;28;131253;-83
2022/03/16 04:09:30;;;;;;;11.93;10.43;;;8.30;99.90;;;9.08;56.52;102029.38;4878867;28;98669;-83
2022/03/16 04:11:56;;;;;;;11.73;10.53;;;8.30;99.90;;;9.14;56.39;102036.38;4895823;28;97632;-82
2022/03/16 04:14:22;;;;;;;11.90;10.23;;;8.30;99.90;;;9.14;56.95;102031.97;4875801;28;99962;-82
2022/03/16 04:16:48;;;;;;;11.83;10.60;;;8.30;99.90;;;9.17;55.36;102029.31;4911531;28;100269;-82
2022/03/16 04:19:13;;;;;;;12.80;11.20;;;8.40;99.90;;;9.23;55.98;102031.88;4874216;28;126794;-83
2022/03/16 04:21:39;;;;;;;12.00;10.73;;;8.40;99.90;;;9.31;55.68;102033.59;4883897;28;123387;-83
2022/03/16 04:24:06;;;;;;;11.60;10.37;;;8.50;99.90;;;9.41;56.32;102035.28;4870308;28;98758;-83
2022/03/16 04:26:32;;;;;;;12.97;11.13;;;8.50;99.90;;;9.39;55.84;102029.13;4860532;28;111240;-84
2022/03/16 04:29:10;;;;;;;12.43;11.13;;;8.60;99.90;;;9.52;56.59;102028.13;4877675;28;97252;-84
2022/03/16 04:31:36;;;;;;;11.83;10.07;;;8.60;99.90;;;9.59;56.11;102029.81;4860468;28;122373;-83
2022/03/16 04:34:02;;;;;;;10.97;9.87;;;8.70;99.90;;;9.66;55.63;102018.31;4876024;28;98411;-83
2022/03/16 04:36:30;;;;;;;12.63;10.07;;;8.70;99.90;;;9.74;55.46;102019.13;4893159;28;98939;-83
2022/03/16 04:38:57;;;;;;;12.17;10.87;;;8.80;99.90;;;9.75;54.96;102020.88;4887836;28;99711;-83
2022/03/16 04:41:23;;;;;;;12.37;10.47;;;8.80;99.90;;;9.75;55.39;102020.88;4865424;28;98568;-82
2022/03/16 04:43:49;;;;;;;11.57;10.43;;;8.80;99.90;;;9.88;55.94;102024.25;4894793;28;123316;-83
2022/03/16 04:46:14;;;;;;;13.17;10.53;;;8.90;99.90;;;9.88;55.06;102020.75;4860817;28;98714;-83
2022/03/16 04:48:40;;;;;;;13.23;11.47;;;8.90;99.90;;;9.88;54.63;102023.38;4878527;28;119943;-83
2022/03/16 04:51:10;;;;;;;13.17;11.60;;;8.90;99.90;;;9.95;53.80;102022.41;4859319;28;96973;-82
2022/03/16 04:53:36;;;;;;;14.87;12.70;;;9.00;99.90;;;10.02;53.83;102024.97;4912615;28;96972;-82
2022/03/16 04:56:01;;;;;;;13.10;11.30;;;9.00;99.90;;;10.13;53.81;102024.84;4867042;28;100191;-82
2022/03/16 04:58:27;;;;;;;13.67;12.27;;;9.10;99.90;;;9.96;53.43;102018.88;4907760;28;101326;-83
2022/03/16 05:00:53;;;;;;;12.80;11.50;;;9.10;99.90;;;9.98;53.80;102019.72;4873290;28;126178;-83
2022/03/16 05:03:19;;;;;;;11.87;10.17;;;9.00;99.90;;;10.12;55.39;102020.44;4887615;28;97324;-83
2022/03/16 05:05:46;;;;;;;10.90;9.80;;;9.10;99.90;;;10.34;54.55;102029.88;4872544;28;117349;-82
2022/03/16 05:08:12;;;;;;;10.90;9.83;;;9.30;99.90;;;10.38;54.17;102022.78;4874313;28;98062;-83
2022/03/16 05:10:38;;;;;;;12.40;11.00;;;9.40;99.90;;;10.36;53.05;102019.28;4869871;28;99757;-82
2022/03/16 05:13:05;;;;;;;13.07;11.33;;;9.30;99.90;;;10.21;53.34;102025.63;4884041;28;97286;-82
2022/03/16 05:15:31;;;;;;;14.13;12.20;;;9.20;99.90;;;10.17;52.85;102016.00;4881784;28;97813;-83
2022/03/16 05:17:56;;;;;;;12.57;11.27;;;9.20;99.90;;;10.04;53.09;102017.03;4880405;28;122834;-83
2022/03/16 05:20:22;;;;;;;11.70;10.40;;;9.00;99.90;;;9.94;53.04;102028.56;4893742;28;126174;-84
2022/03/16 05:22:53;;;;;;;13.00;11.03;;;9.00;99.90;;;9.77;53.53;102024.34;4929405;28;98024;-83
2022/03/16 05:25:22;;;;;;;12.07;10.83;;;8.80;99.90;;;9.75;53.75;102018.22;4911253;28;97802;-83
2022/03/16 05:27:48;;;;;;;11.50;10.30;;;8.80;99.90;;;9.64;54.15;102017.47;4895422;28;104542;-83
2022/03/16 05:30:15;;;;;;;11.57;10.37;;;8.70;99.90;;;9.59;53.89;102018.41;4875022;28;96980;-83
2022/03/16 05:32:42;;;;;;;12.30;10.83;;;8.70;99.90;;;9.54;54.89;102018.44;4873426;28;97124;-83
2022/03/16 05:35:12;;;;;;;12.13;10.83;;;8.60;99.90;;;9.40;53.56;102022.97;4896107;28;99998;-83
2022/03/16 05:37:38;;;;;;;13.43;11.00;;;8.50;99.90;;;9.16;53.53;102032.84;4861750;28;99070;-83
2022/03/16 05:40:07;;;;;;;12.20;10.90;;;8.40;99.90;;;9.14;55.33;102034.63;4873637;28;98204;-83
2022/03/16 05:42:37;;;;;;;12.50;11.20;;;8.30;99.90;;;9.04;53.73;102034.69;4880279;28;97601;-83
2022/03/16 05:45:05;;;;;;;12.53;11.17;;;8.30;99.90;;;9.00;55.08;102039.09;4862233;28;104328;-83
2022/03/16 05:47:32;;;;;;;12.40;11.10;;;8.30;99.90;;;9.04;55.60;102040.81;4878114;28;98180;-83
2022/03/16 05:49:58;;;;;;;11.83;10.13;;;8.20;99.90;;;9.05;55.79;102046.97;4873054;28;97265;-84
2022/03/16 05:52:26;;;;;;;12.70;10.57;;;8.20;99.90;;;8.97;55.23;102044.41;4875149;28;128416;-84
2022/03/16 05:54:55;;;;;;;12.83;10.23;;;8.10;99.90;;;9.06;55.63;102046.06;4877332;28;100384;-84
2022/03/16 05:57:21;;;;;;;11.87;10.00;;;8.20;99.90;;;9.21;56.12;102049.47;4867534;28;100064;-85
2022/03/16 05:59:47;;;;;;;11.40;10.20;;;8.20;99.90;;;9.11;54.94;102047.81;4882381;28;97244;-84
2022/03/16 06:02:14;;;;;;;11.80;10.50;;;8.20;99.90;;;9.15;54.88;102043.38;4860678;28;102403;-84
2022/03/16 06:04:42;;;;;;;12.00;10.23;;;8.30;99.90;;;9.06;54.74;102054.84;4869494;28;98784;-84
2022/03/16 06:07:08;;;;;;;11.73;10.53;;;8.20;99.90;;;9.18;55.05;102049.50;4843616;28;99500;-84
2022/03/16 06:09:34;;;;;;;12.10;10.30;;;8.20;99.90;;;9.15;55.38;102049.53;4877499;28;102653;-84
2022/03/16 06:12:02;;;;;;;11.47;10.07;;;8.30;99.90;;;9.30;56.29;102058.19;4872538;28;97049;-85
2022/03/16 06:14:29;;;;;;;15.37;10.30;;;8.30;99.90;;;9.41;55.18;102045.81;4887914;28;100475;-84
2022/03/16 06:16:55;;;;;;;12.83;10.43;;;8.40;99.90;;;9.50;54.63;102045.69;4874571;28;97464;-84
2022/03/16 06:19:22;;;;;;;13.13;11.07;;;8.40;99.90;;;9.59;55.01;102042.13;4865743;28;96838;-84
2022/03/16 06:21:50;;;;;;;12.63;10.30;;;8.50;99.90;;;9.53;55.19;102041.28;4859436;28;97091;-84
2022/03/16 06:24:16;;;;;;;13.13;10.80;;;8.50;99.90;;;9.36;53.75;102052.84;4887917;28;120266;-84
2022/03/16 06:26:43;;;;;;;12.10;10.23;;;8.50;99.90;;;9.46;55.13;102049.25;4878112;28;126175;-84
2022/03/16 06:29:10;;;;;;;13.30;10.30;;;8.50;99.90;;;9.62;56.33;102045.59;4864974;28;98305;-84
2022/03/16 06:31:36;;;;;;;11.10;9.80;;;8.60;99.90;;;9.72;55.96;102041.97;4861179;28;97157;-84
2022/03/16 06:34:02;;;;;;;13.47;11.20;;;8.70;99.90;;;9.65;54.76;102049.94;4844120;28;119253;-84
2022/03/16 06:36:29;;;;;;;14.73;11.53;;;8.70;99.90;;;9.58;55.39;102049.16;4910424;28;105954;-84
2022/03/16 06:38:56;;;;;;;16.23;11.47;;;8.70;99.90;;;9.56;55.72;102057.97;4875690;28;123698;-84
2022/03/16 06:41:23;;;;;;;17.87;12.70;;;8.70;99.90;;;9.45;55.39;102052.78;4878309;28;97097;-84
2022/03/16 06:43:49;;;;;;;14.80;11.90;;;8.70;99.90;;;9.63;56.33;102047.34;4878647;28;100127;-84
2022/03/16 06:46:15;;;;;;;15.90;12.87;;;8.80;99.90;;;9.66;55.84;102057.84;4868218;28;106117;-84
2022/03/16 06:48:41;;;;;;;19.37;14.27;;;8.90;99.90;;;9.65;55.97;102056.09;4881447;28;97382;-84
2022/03/16 06:51:07;;;;;;;14.77;10.87;;;8.90;99.90;;;9.89;56.64;102054.97;4870432;28;97246;-84
2022/03/16 06:53:34;;;;;;;12.07;10.43;;;9.00;99.90;;;10.22;55.96;102058.16;4863782;28;98760;-84
2022/03/16 06:56:02;;;;;;;14.80;11.83;;;9.40;99.90;;;10.32;54.86;102047.47;4856464;28;97255;-84
2022/03/16 06:58:28;;;;;;;15.00;12.63;;;9.50;99.90;;;10.35;54.27;102052.72;4892502;28;97861;-85
2022/03/16 07:00:54;;;;;;;15.13;12.50;;;9.50;99.90;;;10.32;54.69;102055.41;4876124;28;122435;-85
2022/03/16 07:03:19;;;;;;;13.33;11.33;;;9.50;99.90;;;10.41;55.04;102060.56;4871621;28;117159;-85
2022/03/16 07:05:45;;;;;;;15.40;12.67;;;9.50;99.90;;;10.33;55.00;102054.50;4875362;28;128302;-86
2022/03/16 07:08:18;;;;;;;19.97;13.00;;;9.50;99.90;;;10.09;55.46;102057.38;4863630;28;97333;-84
2022/03/16 07:10:44;;;;;;;10.83;7.97;;;9.40;99.90;;;10.21;56.01;102059.91;4878419;28;97614;-85
2022/03/16 07:13:13;;;;;;;16.93;12.23;;;9.40;99.90;;;10.46;55.04;102051.72;4857792;28;99198;-86
2022/03/16 07:15:47;;;;;;;13.57;11.43;;;9.60;99.90;;;10.52;55.00;102041.06;4862974;28;104065;-85
2022/03/16 07:18:15;;;;;;;11.73;9.53;;;9.70;99.90;;;10.72;54.48;102054.88;4821356;28;97564;-85
2022/03/16 07:20:44;;;;;;;14.63;12.57;;;9.90;99.90;;;10.73;54.26;102046.06;4878298;28;98171;-85
2022/03/16 07:23:13;;;;;;;9.50;7.30;;;9.90;99.90;;;10.93;54.06;102043.13;4861572;28;98062;-85
2022/03/16 07:25:50;;;;;;;8.40;7.03;;;10.00;99.90;;;11.25;53.14;102029.38;4878406;28;98175;-84
2022/03/16 07:28:19;;;;;;;13.80;10.80;;;10.50;99.90;;;11.35;52.84;102031.00;4874121;28;97073;-85
2022/03/16 07:30:48;;;;;;;11.13;8.57;;;10.50;99.90;;;11.58;52.08;102022.66;4852145;28;97342;-86
2022/03/16 07:33:14;;;;;;;14.97;9.03;;;10.80;99.90;;;11.80;51.38;102033.75;4851209;28;97986;-87
2022/03/16 07:35:40;;;;;;;3.17;2.80;;;11.00;99.90;;;12.27;50.45;102039.84;4892916;28;99403;-85
2022/03/16 07:38:15;;;;;;;3.77;3.23;;;11.60;99.90;;;12.52;49.67;102025.19;4870486;28;116477;-84
2022/03/16 07:40:42;;;;;;;5.80;4.40;;;12.10;99.90;;;12.96;48.54;102033.91;4871897;28;98800;-83
2022/03/16 07:43:14;;;;;;;3.50;2.57;;;12.60;99.90;;;13.23;47.91;102025.31;4850915;28;99115;-83
2022/03/16 07:45:40;;;;;;;3.30;2.47;;;12.90;99.40;;;13.64;46.79;102023.38;4877391;28;100293;-81
2022/03/16 07:48:06;;;;;;;3.00;2.67;;;13.40;98.70;;;13.98;46.04;102020.66;4856798;28;116232;-81
2022/03/16 07:50:35;;;;;;;3.10;2.80;;;14.00;97.30;;;14.28;45.47;102024.22;4872622;28;98366;-81
2022/03/16 07:53:01;;;;;;;3.57;3.17;;;14.30;96.60;;;14.39;44.97;102021.25;4879395;28;99561;-84
2022/03/16 07:55:28;;;;;;;3.13;2.40;;;14.40;96.80;;;14.48;44.80;102021.88;4869058;28;97522;-84
2022/03/16 07:57:59;;;;;;;2.57;2.37;;;14.40;96.50;;;14.63;44.61;102031.16;4865018;28;97969;-83
2022/03/16 08:00:27;;;;;;;2.03;1.83;;;14.50;96.30;;;14.69;44.20;102030.09;4872313;28;98402;-84
2022/03/16 08:02:54;;;;;;;4.53;4.07;;;14.50;96.10;;;14.75;44.29;102025.44;4866599;28;97674;-83
2022/03/16 08:05:23;;;;;;;6.40;5.37;;;14.60;95.90;;;14.92;43.75;102027.59;4847435;28;99323;-84
2022/03/16 08:07:50;;;;;;;4.43;3.57;;;14.90;95.50;;;14.99;43.76;102026.47;4873086;28;98317;-81
2022/03/16 08:10:16;;;;;;;8.77;7.53;;;14.90;95.50;;;14.93;43.81;102024.03;4820978;28;98090;-81
2022/03/16 08:12:46;;;;;;;9.33;8.33;;;14.90;95.50;;;14.77;44.56;102018.34;4847423;28;98872;-84
2022/03/16 08:15:11;;;;;;;2.60;2.40;;;14.50;97.00;;;14.74;44.21;102017.53;4861155;28;96899;-84
2022/03/16 08:17:37;;;;;;;6.13;5.60;;;14.40;96.50;;;14.88;44.09;102020.63;4894663;28;99617;-83
2022/03/16 08:20:09;;;;;;;2.50;2.30;;;14.60;95.90;;;14.99;43.65;102021.16;4849869;28;116823;-84
2022/03/16 08:22:36;;;;;;;7.50;6.80;;;14.80;95.60;;;15.11;43.22;102017.22;4866328;28;98620;-84
2022/03/16 08:25:13;;;;;;;4.03;2.93;;;15.10;95.00;;;15.12;43.58;102019.84;4852036;28;101106;-84
2022/03/16 08:27:43;;;;;;;8.30;7.47;;;15.00;94.90;;;15.03;43.70;102020.13;4870055;28;98111;-84
2022/03/16 08:30:11;;;;;;;6.60;5.93;;;14.80;95.90;;;14.77;44.36;102020.13;4865637;28;98108;-83
2022/03/16 08:32:38;;;;;;;3.83;3.30;;;14.60;96.20;;;14.72;44.44;102016.72;4859002;28;100111;-83
2022/03/16 08:35:06;;;;;;;9.60;8.63;;;14.40;96.40;;;14.57;44.85;102010.09;4865493;28;115538;-83
2022/03/16 08:37:36;;;;;;;2.60;2.20;;;14.20;97.00;;;14.75;44.15;102009.50;4868340;28;98202;-83
2022/03/16 08:40:03;;;;;;;8.93;8.03;;;14.40;96.00;;;14.72;44.70;102019.38;4882958;28;97508;-83
2022/03/16 08:42:29;;;;;;;4.30;3.90;;;14.40;97.30;;;14.74;44.37;102006.91;4868796;28;99742;-83
2022/03/16 08:44:58;;;;;;;2.43;2.17;;;14.50;96.20;;;14.86;44.11;102006.53;4864796;28;98163;-83
2022/03/16 08:47:23;;;;;;;3.10;2.40;;;14.70;95.90;;;15.02;43.69;102006.91;4841763;28;130042;-84
2022/03/16 08:49:53;;;;;;;2.23;2.03;;;14.90;95.20;;;15.18;43.37;102003.66;4849315;28;119089;-83
2022/03/16 08:52:22;;;;;;;2.40;2.20;;;15.20;94.60;;;15.36;43.04;102017.28;4826178;28;98953;-83
2022/03/16 08:54:48;;;;;;;3.23;2.30;;;15.50;94.10;;;15.41;42.91;102008.22;4845139;28;98769;-83
2022/03/16 08:57:15;;;;;;;2.90;2.60;;;15.60;93.70;;;15.48;42.83;102006.22;4791474;28;104715;-83
2022/03/16 08:59:45;;;;;;;3.73;3.43;;;15.70;93.60;;;15.56;42.65;102009.47;4833272;28;98682;-83
2022/03/16 09:02:11;;;;;;;3.17;2.73;;;15.80;93.20;;;15.62;42.52;102008.41;4847799;28;100921;-84
2022/03/16 09:04:37;;;;;;;3.70;3.27;;;15.90;93.30;;;15.71;42.37;102014.28;4864514;23;107858;-83
2022/03/16 09:07:12;;;;;;;4.43;3.90;;;16.00;93.00;;;15.72;42.14;102002.72;4850986;28;97320;-82
2022/03/16 09:09:39;;;;;;;2.60;2.40;;;16.00;92.80;;;15.79;42.17;101998.06;4873674;28;122364;-82
2022/03/16 09:12:09;;;;;;;2.57;2.37;;;16.10;92.80;;;15.81;42.01;102003.31;4864832;28;97709;-82
2022/03/16 09:14:35;;;;;;;3.17;2.83;;;16.10;92.60;;;15.90;41.75;102008.28;4886824;23;98399;-59
2022/03/16 09:17:01;;;;;;;5.00;4.53;;;16.20;92.50;;;15.98;41.92;102006.25;4910853;28;110877;-55
2022/03/16 09:19:33;;;;;;;2.97;2.43;;;16.30;92.30;;;16.02;41.74;102007.84;4906205;28;98990;-54
2022/03/16 09:22:00;;;;;;;2.97;2.73;;;16.30;92.30;;;16.02;41.71;102011.38;4904056;28;96832;-61
2022/03/16 09:24:26;;;;;;;3.37;2.97;;;16.30;92.20;;;16.03;41.55;102015.78;4899632;28;99873;-54
2022/03/16 09:26:59;;;;;;;3.50;3.20;;;16.30;92.20;;;16.04;41.46;102011.31;4894315;28;96864;-54
2022/03/16 09:29:26;;;;;;;4.27;3.33;;;16.30;92.20;;;16.08;41.37;102010.31;4893018;28;96966;-53
2022/03/16 09:31:55;;;;;;;5.33;4.80;;;16.30;92.00;;;16.09;41.59;102008.50;4896105;28;96785;-58
2022/03/16 09:34:22;;;;;;;3.43;3.10;;;16.40;92.00;;;16.03;41.43;102004.25;4888926;28;111219;-58
2022/03/16 09:36:48;;;;;;;3.27;2.97;;;16.40;91.90;;;16.01;41.65;102008.78;4894637;28;97113;-57
2022/03/16 09:39:18;;;;;;;3.63;3.33;;;16.40;91.80;;;15.95;41.60;102003.69;4893500;28;96935;-58
2022/03/16 09:41:44;;;;;;;3.67;3.37;;;16.40;91.70;;;15.98;41.54;102011.56;4909449;28;98821;-60
2022/03/16 09:44:10;;;;;;;4.37;3.97;;;16.30;91.70;;;16.02;41.64;102013.16;4887779;28;97037;-59
2022/03/16 09:46:38;;;;;;;3.53;3.23;;;16.40;91.70;;;16.03;41.37;102020.22;4891413;28;103978;-60
2022/03/16 09:49:06;;;;;;;3.40;3.10;;;16.30;91.70;;;16.03;41.54;102020.22;4862382;28;96993;-63
2022/03/16 09:51:39;;;;;;;3.33;3.00;;;16.40;91.80;;;16.01;41.58;102011.44;4883279;28;100452;-60
2022/03/16 09:54:06;;;;;;;3.00;2.80;;;16.30;92.10;;;15.95;41.77;102006.34;4861836;28;97159;-60
2022/03/16 09:56:35;;;;;;;3.43;2.90;;;16.30;91.70;;;15.98;41.71;102007.09;4891794;28;97082;-60
2022/03/16 09:59:06;;;;;;;3.03;2.73;;;16.30;91.60;;;15.95;41.60;102007.22;4911422;28;97231;-60
2022/03/16 10:01:35;;;;;;;2.90;2.60;;;16.30;91.60;;;16.04;41.50;102001.53;4902949;28;100607;-57
2022/03/16 10:04:03;;;;;;;3.37;2.90;;;16.50;91.50;;;16.06;41.35;102005.03;4887238;28;97123;-58
2022/03/16 10:06:30;;;;;;;3.60;3.30;;;16.40;91.40;;;16.09;41.58;102014.69;4887017;28;98276;-58
2022/03/16 10:14:24;;;;;;;2.90;2.70;;;16.40;91.70;;;15.98;41.75;102006.25;4896315;28;100945;-57